sensor_id;sensor_type;location;lat;lon;timestamp;temperature;humidity
59977;DHT22;45837;51.076;3.578;2023-08-07T00:01:14;21.50;59.70
59977;DHT22;45837;51.076;3.578;2023-08-07T00:03:40;21.50;60.00
59977;DHT22;45837;51.076;3.578;2023-08-07T00:06:06;21.50;60.50
59977;DHT22;45837;51.076;3.578;2023-08-07T00:08:32;21.50;60.00
59977;DHT22;45837;51.076;3.578;2023-08-07T00:11:08;21.50;59.60
59977;DHT22;45837;51.076;3.578;2023-08-07T00:13:34;21.50;59.10
59977;DHT22;45837;51.076;3.578;2023-08-07T00:15:59;21.40;59.50
59977;DHT22;45837;51.076;3.578;2023-08-07T00:18:25;21.40;60.10
59977;DHT22;45837;51.076;3.578;2023-08-07T00:20:51;21.50;60.00
59977;DHT22;45837;51.076;3.578;2023-08-07T00:23:16;21.40;60.30
59977;DHT22;45837;51.076;3.578;2023-08-07T00:25:42;21.40;59.90
59977;DHT22;45837;51.076;3.578;2023-08-07T00:28:08;21.50;60.60
59977;DHT22;45837;51.076;3.578;2023-08-07T00:30:33;21.40;59.90
59977;DHT22;45837;51.076;3.578;2023-08-07T00:32:59;21.40;61.10
59977;DHT22;45837;51.076;3.578;2023-08-07T00:35:26;21.40;60.80
59977;DHT22;45837;51.076;3.578;2023-08-07T00:37:51;21.40;61.60
59977;DHT22;45837;51.076;3.578;2023-08-07T00:40:17;21.50;60.30
59977;DHT22;45837;51.076;3.578;2023-08-07T00:42:43;21.50;60.30
59977;DHT22;45837;51.076;3.578;2023-08-07T00:45:09;21.50;60.70
59977;DHT22;45837;51.076;3.578;2023-08-07T00:47:35;21.40;60.70
59977;DHT22;45837;51.076;3.578;2023-08-07T00:50:03;21.50;59.80
59977;DHT22;45837;51.076;3.578;2023-08-07T00:52:29;21.40;59.30
59977;DHT22;45837;51.076;3.578;2023-08-07T00:54:55;21.10;59.50
59977;DHT22;45837;51.076;3.578;2023-08-07T00:57:21;21.50;60.90
59977;DHT22;45837;51.076;3.578;2023-08-07T00:59:48;21.40;60.00
59977;DHT22;45837;51.076;3.578;2023-08-07T01:02:14;21.40;59.30
59977;DHT22;45837;51.076;3.578;2023-08-07T01:04:40;21.50;59.80
59977;DHT22;45837;51.076;3.578;2023-08-07T01:07:07;21.50;59.70
59977;DHT22;45837;51.076;3.578;2023-08-07T01:09:32;21.50;60.80
59977;DHT22;45837;51.076;3.578;2023-08-07T01:12:02;21.40;60.80
59977;DHT22;45837;51.076;3.578;2023-08-07T01:14:37;21.50;59.40
59977;DHT22;45837;51.076;3.578;2023-08-07T01:17:08;21.40;59.80
59977;DHT22;45837;51.076;3.578;2023-08-07T01:19:35;21.50;59.50
59977;DHT22;45837;51.076;3.578;2023-08-07T01:22:11;21.40;60.30
59977;DHT22;45837;51.076;3.578;2023-08-07T01:24:39;21.50;59.20
59977;DHT22;45837;51.076;3.578;2023-08-07T01:29:42;21.40;59.10
59977;DHT22;45837;51.076;3.578;2023-08-07T01:32:09;21.40;59.30
59977;DHT22;45837;51.076;3.578;2023-08-07T01:34:38;21.40;59.20
59977;DHT22;45837;51.076;3.578;2023-08-07T01:37:06;21.40;59.70
59977;DHT22;45837;51.076;3.578;2023-08-07T01:39:32;21.40;59.40
59977;DHT22;45837;51.076;3.578;2023-08-07T01:41:59;21.40;59.70
59977;DHT22;45837;51.076;3.578;2023-08-07T01:44:27;21.40;59.50
59977;DHT22;45837;51.076;3.578;2023-08-07T01:46:52;21.40;60.50
59977;DHT22;45837;51.076;3.578;2023-08-07T01:49:20;21.40;59.90
59977;DHT22;45837;51.076;3.578;2023-08-07T01:51:46;21.30;60.80
59977;DHT22;45837;51.076;3.578;2023-08-07T01:54:11;21.40;61.20
59977;DHT22;45837;51.076;3.578;2023-08-07T01:56:37;21.30;60.70
59977;DHT22;45837;51.076;3.578;2023-08-07T01:59:03;21.50;61.40
59977;DHT22;45837;51.076;3.578;2023-08-07T02:01:28;21.20;61.30
59977;DHT22;45837;51.076;3.578;2023-08-07T02:03:54;21.30;60.20
59977;DHT22;45837;51.076;3.578;2023-08-07T02:06:20;21.40;60.80
59977;DHT22;45837;51.076;3.578;2023-08-07T02:08:45;21.40;61.20
59977;DHT22;45837;51.076;3.578;2023-08-07T02:11:11;21.30;60.50
59977;DHT22;45837;51.076;3.578;2023-08-07T02:13:37;21.30;61.40
59977;DHT22;45837;51.076;3.578;2023-08-07T02:16:03;21.30;58.70
59977;DHT22;45837;51.076;3.578;2023-08-07T02:18:28;21.30;60.00
59977;DHT22;45837;51.076;3.578;2023-08-07T02:20:54;21.30;61.70
59977;DHT22;45837;51.076;3.578;2023-08-07T02:23:20;21.30;60.90
59977;DHT22;45837;51.076;3.578;2023-08-07T02:25:45;21.30;61.20
59977;DHT22;45837;51.076;3.578;2023-08-07T02:28:11;21.30;58.70
59977;DHT22;45837;51.076;3.578;2023-08-07T02:30:37;21.30;58.60
59977;DHT22;45837;51.076;3.578;2023-08-07T02:33:02;21.30;60.70
59977;DHT22;45837;51.076;3.578;2023-08-07T02:35:28;21.30;60.20
59977;DHT22;45837;51.076;3.578;2023-08-07T02:37:54;21.30;61.20
59977;DHT22;45837;51.076;3.578;2023-08-07T02:40:19;21.30;58.70
59977;DHT22;45837;51.076;3.578;2023-08-07T02:42:45;21.30;60.90
59977;DHT22;45837;51.076;3.578;2023-08-07T02:45:11;21.30;62.00
59977;DHT22;45837;51.076;3.578;2023-08-07T02:47:36;21.20;61.40
59977;DHT22;45837;51.076;3.578;2023-08-07T02:50:02;21.30;60.40
59977;DHT22;45837;51.076;3.578;2023-08-07T02:52:29;20.10;59.90
59977;DHT22;45837;51.076;3.578;2023-08-07T02:54:55;21.20;61.00
59977;DHT22;45837;51.076;3.578;2023-08-07T02:57:20;21.30;61.30
59977;DHT22;45837;51.076;3.578;2023-08-07T02:59:46;21.30;60.90
59977;DHT22;45837;51.076;3.578;2023-08-07T03:02:12;21.20;58.70
59977;DHT22;45837;51.076;3.578;2023-08-07T03:04:37;21.30;61.10
59977;DHT22;45837;51.076;3.578;2023-08-07T03:07:03;21.30;61.20
59977;DHT22;45837;51.076;3.578;2023-08-07T03:09:29;21.30;60.70
59977;DHT22;45837;51.076;3.578;2023-08-07T03:11:55;21.40;60.60
59977;DHT22;45837;51.076;3.578;2023-08-07T03:14:20;21.20;60.40
59977;DHT22;45837;51.076;3.578;2023-08-07T03:16:46;21.20;61.50
59977;DHT22;45837;51.076;3.578;2023-08-07T03:19:12;21.40;62.20
59977;DHT22;45837;51.076;3.578;2023-08-07T03:21:38;21.20;59.60
59977;DHT22;45837;51.076;3.578;2023-08-07T03:24:04;21.20;60.40
59977;DHT22;45837;51.076;3.578;2023-08-07T03:26:30;21.20;60.60
59977;DHT22;45837;51.076;3.578;2023-08-07T03:28:55;21.20;61.90
59977;DHT22;45837;51.076;3.578;2023-08-07T03:31:21;21.20;61.40
59977;DHT22;45837;51.076;3.578;2023-08-07T03:33:47;21.20;58.70
59977;DHT22;45837;51.076;3.578;2023-08-07T03:36:15;21.20;61.00
59977;DHT22;45837;51.076;3.578;2023-08-07T03:38:41;21.30;61.20
59977;DHT22;45837;51.076;3.578;2023-08-07T03:41:07;21.20;62.20
59977;DHT22;45837;51.076;3.578;2023-08-07T03:43:33;21.20;58.70
59977;DHT22;45837;51.076;3.578;2023-08-07T03:45:58;21.20;60.10
59977;DHT22;45837;51.076;3.578;2023-08-07T03:48:24;21.20;60.10
59977;DHT22;45837;51.076;3.578;2023-08-07T03:50:51;21.40;62.00
59977;DHT22;45837;51.076;3.578;2023-08-07T03:53:17;21.20;60.70
59977;DHT22;45837;51.076;3.578;2023-08-07T03:55:54;21.20;61.40
59977;DHT22;45837;51.076;3.578;2023-08-07T03:58:22;21.40;59.80
59977;DHT22;45837;51.076;3.578;2023-08-07T04:00:48;21.20;61.60
59977;DHT22;45837;51.076;3.578;2023-08-07T04:03:15;21.20;59.50
59977;DHT22;45837;51.076;3.578;2023-08-07T04:05:41;21.20;60.50
59977;DHT22;45837;51.076;3.578;2023-08-07T04:08:07;21.20;62.50
59977;DHT22;45837;51.076;3.578;2023-08-07T04:10:33;21.10;58.70
59977;DHT22;45837;51.076;3.578;2023-08-07T04:12:59;21.30;61.10
59977;DHT22;45837;51.076;3.578;2023-08-07T04:15:25;21.10;61.00
59977;DHT22;45837;51.076;3.578;2023-08-07T04:17:51;21.10;59.80
59977;DHT22;45837;51.076;3.578;2023-08-07T04:20:16;21.20;61.40
59977;DHT22;45837;51.076;3.578;2023-08-07T04:22:42;21.10;60.20
59977;DHT22;45837;51.076;3.578;2023-08-07T04:25:08;21.20;60.60
59977;DHT22;45837;51.076;3.578;2023-08-07T04:27:34;20.50;59.50
59977;DHT22;45837;51.076;3.578;2023-08-07T04:29:59;21.10;61.60
59977;DHT22;45837;51.076;3.578;2023-08-07T04:32:25;21.10;58.70
59977;DHT22;45837;51.076;3.578;2023-08-07T04:34:51;21.10;58.70
59977;DHT22;45837;51.076;3.578;2023-08-07T04:37:17;21.30;61.60
59977;DHT22;45837;51.076;3.578;2023-08-07T04:39:42;21.30;61.40
59977;DHT22;45837;51.076;3.578;2023-08-07T04:42:08;21.10;60.20
59977;DHT22;45837;51.076;3.578;2023-08-07T04:44:34;21.20;59.80
59977;DHT22;45837;51.076;3.578;2023-08-07T04:46:59;21.20;61.60
59977;DHT22;45837;51.076;3.578;2023-08-07T04:49:25;21.20;61.50
59977;DHT22;45837;51.076;3.578;2023-08-07T04:51:51;21.20;61.10
59977;DHT22;45837;51.076;3.578;2023-08-07T04:54:16;21.20;60.50
59977;DHT22;45837;51.076;3.578;2023-08-07T04:56:42;21.20;60.00
59977;DHT22;45837;51.076;3.578;2023-08-07T04:59:10;21.30;60.10
59977;DHT22;45837;51.076;3.578;2023-08-07T05:01:36;21.20;59.30
59977;DHT22;45837;51.076;3.578;2023-08-07T05:04:01;21.20;58.10
59977;DHT22;45837;51.076;3.578;2023-08-07T05:06:27;21.30;60.70
59977;DHT22;45837;51.076;3.578;2023-08-07T05:08:53;21.30;61.20
59977;DHT22;45837;51.076;3.578;2023-08-07T05:11:18;21.50;60.50
59977;DHT22;45837;51.076;3.578;2023-08-07T05:13:45;21.40;59.40
59977;DHT22;45837;51.076;3.578;2023-08-07T05:16:11;21.50;60.20
59977;DHT22;45837;51.076;3.578;2023-08-07T05:18:37;21.40;57.90
59977;DHT22;45837;51.076;3.578;2023-08-07T05:21:02;21.60;59.80
59977;DHT22;45837;51.076;3.578;2023-08-07T05:23:28;21.50;58.80
59977;DHT22;45837;51.076;3.578;2023-08-07T05:25:54;21.60;60.50
59977;DHT22;45837;51.076;3.578;2023-08-07T05:28:20;21.50;59.70
59977;DHT22;45837;51.076;3.578;2023-08-07T05:30:45;21.50;57.60
59977;DHT22;45837;51.076;3.578;2023-08-07T05:33:11;21.60;59.90
59977;DHT22;45837;51.076;3.578;2023-08-07T05:35:37;22.90;58.20
59977;DHT22;45837;51.076;3.578;2023-08-07T05:38:04;21.50;57.50
59977;DHT22;45837;51.076;3.578;2023-08-07T05:40:29;21.50;60.40
59977;DHT22;45837;51.076;3.578;2023-08-07T05:42:55;21.50;57.50
59977;DHT22;45837;51.076;3.578;2023-08-07T05:45:21;21.60;60.00
59977;DHT22;45837;51.076;3.578;2023-08-07T05:47:46;21.60;59.10
59977;DHT22;45837;51.076;3.578;2023-08-07T05:50:12;21.60;59.00
59977;DHT22;45837;51.076;3.578;2023-08-07T05:52:38;21.60;59.50
59977;DHT22;45837;51.076;3.578;2023-08-07T05:55:04;21.60;57.50
59977;DHT22;45837;51.076;3.578;2023-08-07T05:57:30;21.60;58.30
59977;DHT22;45837;51.076;3.578;2023-08-07T05:59:55;21.60;59.80
59977;DHT22;45837;51.076;3.578;2023-08-07T06:02:21;21.60;57.50
59977;DHT22;45837;51.076;3.578;2023-08-07T06:04:47;21.70;59.50
59977;DHT22;45837;51.076;3.578;2023-08-07T06:07:15;21.70;59.20
59977;DHT22;45837;51.076;3.578;2023-08-07T06:09:41;21.70;59.90
59977;DHT22;45837;51.076;3.578;2023-08-07T06:12:07;21.70;60.00
59977;DHT22;45837;51.076;3.578;2023-08-07T06:14:33;21.70;59.70
59977;DHT22;45837;51.076;3.578;2023-08-07T06:16:58;21.80;60.70
59977;DHT22;45837;51.076;3.578;2023-08-07T06:19:26;21.70;58.90
59977;DHT22;45837;51.076;3.578;2023-08-07T06:21:52;21.70;60.20
59977;DHT22;45837;51.076;3.578;2023-08-07T06:24:19;21.80;59.10
59977;DHT22;45837;51.076;3.578;2023-08-07T06:26:45;21.70;60.10
59977;DHT22;45837;51.076;3.578;2023-08-07T06:29:10;21.80;61.50
59977;DHT22;45837;51.076;3.578;2023-08-07T06:31:36;21.70;59.70
59977;DHT22;45837;51.076;3.578;2023-08-07T06:34:02;21.70;60.20
59977;DHT22;45837;51.076;3.578;2023-08-07T06:36:28;21.70;58.80
59977;DHT22;45837;51.076;3.578;2023-08-07T06:38:54;21.70;58.90
59977;DHT22;45837;51.076;3.578;2023-08-07T06:41:19;21.70;59.40
59977;DHT22;45837;51.076;3.578;2023-08-07T06:43:45;21.70;59.00
59977;DHT22;45837;51.076;3.578;2023-08-07T06:46:11;21.80;59.30
59977;DHT22;45837;51.076;3.578;2023-08-07T06:48:37;21.70;59.10
59977;DHT22;45837;51.076;3.578;2023-08-07T06:51:02;21.80;59.50
59977;DHT22;45837;51.076;3.578;2023-08-07T06:53:28;21.70;59.30
59977;DHT22;45837;51.076;3.578;2023-08-07T06:55:54;21.80;59.80
59977;DHT22;45837;51.076;3.578;2023-08-07T06:58:19;21.70;59.20
59977;DHT22;45837;51.076;3.578;2023-08-07T07:00:45;21.70;59.20
59977;DHT22;45837;51.076;3.578;2023-08-07T07:03:11;21.80;58.70
59977;DHT22;45837;51.076;3.578;2023-08-07T07:05:37;21.80;58.60
59977;DHT22;45837;51.076;3.578;2023-08-07T07:08:03;21.80;58.50
59977;DHT22;45837;51.076;3.578;2023-08-07T07:10:29;21.80;58.40
59977;DHT22;45837;51.076;3.578;2023-08-07T07:12:55;21.80;58.80
59977;DHT22;45837;51.076;3.578;2023-08-07T07:15:20;21.80;58.80
59977;DHT22;45837;51.076;3.578;2023-08-07T07:17:46;21.80;58.80
59977;DHT22;45837;51.076;3.578;2023-08-07T07:20:12;21.80;58.90
59977;DHT22;45837;51.076;3.578;2023-08-07T07:22:38;21.80;58.10
59977;DHT22;45837;51.076;3.578;2023-08-07T07:25:03;21.90;58.80
59977;DHT22;45837;51.076;3.578;2023-08-07T07:27:29;21.90;58.80
59977;DHT22;45837;51.076;3.578;2023-08-07T07:29:55;21.90;59.30
59977;DHT22;45837;51.076;3.578;2023-08-07T07:32:21;21.90;59.30
59977;DHT22;45837;51.076;3.578;2023-08-07T07:34:46;21.90;58.80
59977;DHT22;45837;51.076;3.578;2023-08-07T07:37:13;21.90;58.60
59977;DHT22;45837;51.076;3.578;2023-08-07T07:39:39;21.90;58.00
59977;DHT22;45837;51.076;3.578;2023-08-07T07:42:05;21.90;58.70
59977;DHT22;45837;51.076;3.578;2023-08-07T07:44:31;21.90;58.30
59977;DHT22;45837;51.076;3.578;2023-08-07T07:46:57;21.90;58.70
59977;DHT22;45837;51.076;3.578;2023-08-07T07:49:22;21.90;58.40
59977;DHT22;45837;51.076;3.578;2023-08-07T07:51:48;22.00;59.10
59977;DHT22;45837;51.076;3.578;2023-08-07T07:54:14;22.00;58.70
59977;DHT22;45837;51.076;3.578;2023-08-07T07:56:41;22.00;58.40
59977;DHT22;45837;51.076;3.578;2023-08-07T07:59:06;22.00;58.00
59977;DHT22;45837;51.076;3.578;2023-08-07T08:01:32;22.00;58.60
59977;DHT22;45837;51.076;3.578;2023-08-07T08:03:58;22.00;58.40
59977;DHT22;45837;51.076;3.578;2023-08-07T08:06:23;22.00;58.50
59977;DHT22;45837;51.076;3.578;2023-08-07T08:08:49;22.00;58.60
59977;DHT22;45837;51.076;3.578;2023-08-07T08:11:15;22.00;58.80
59977;DHT22;45837;51.076;3.578;2023-08-07T08:13:40;22.00;58.60
59977;DHT22;45837;51.076;3.578;2023-08-07T08:16:06;22.00;58.40
59977;DHT22;45837;51.076;3.578;2023-08-07T08:18:32;22.10;58.50
59977;DHT22;45837;51.076;3.578;2023-08-07T08:20:58;22.10;58.40
59977;DHT22;45837;51.076;3.578;2023-08-07T08:23:23;22.10;58.40
59977;DHT22;45837;51.076;3.578;2023-08-07T08:25:49;22.10;58.80
59977;DHT22;45837;51.076;3.578;2023-08-07T08:28:15;22.10;58.60
59977;DHT22;45837;51.076;3.578;2023-08-07T08:30:41;22.10;58.30
59977;DHT22;45837;51.076;3.578;2023-08-07T08:33:07;22.10;57.70
59977;DHT22;45837;51.076;3.578;2023-08-07T08:35:34;22.10;57.90
59977;DHT22;45837;51.076;3.578;2023-08-07T08:38:00;22.10;57.80
59977;DHT22;45837;51.076;3.578;2023-08-07T08:40:26;22.10;57.90
59977;DHT22;45837;51.076;3.578;2023-08-07T08:42:52;22.10;58.80
59977;DHT22;45837;51.076;3.578;2023-08-07T08:45:21;22.10;57.50
59977;DHT22;45837;51.076;3.578;2023-08-07T08:47:47;22.20;57.70
59977;DHT22;45837;51.076;3.578;2023-08-07T08:50:15;22.10;57.50
59977;DHT22;45837;51.076;3.578;2023-08-07T08:52:42;22.20;58.20
59977;DHT22;45837;51.076;3.578;2023-08-07T08:55:08;22.20;57.60
59977;DHT22;45837;51.076;3.578;2023-08-07T08:57:34;22.20;57.60
59977;DHT22;45837;51.076;3.578;2023-08-07T09:00:00;22.20;57.50
59977;DHT22;45837;51.076;3.578;2023-08-07T09:02:29;22.20;57.80
59977;DHT22;45837;51.076;3.578;2023-08-07T09:04:56;22.20;57.50
59977;DHT22;45837;51.076;3.578;2023-08-07T09:07:21;22.20;58.30
59977;DHT22;45837;51.076;3.578;2023-08-07T09:09:47;22.20;58.60
59977;DHT22;45837;51.076;3.578;2023-08-07T09:12:16;22.20;57.60
59977;DHT22;45837;51.076;3.578;2023-08-07T09:14:45;22.20;57.40
59977;DHT22;45837;51.076;3.578;2023-08-07T09:17:13;22.20;57.30
59977;DHT22;45837;51.076;3.578;2023-08-07T09:19:40;22.20;57.40
59977;DHT22;45837;51.076;3.578;2023-08-07T09:22:06;22.20;58.30
59977;DHT22;45837;51.076;3.578;2023-08-07T09:24:32;22.20;57.70
59977;DHT22;45837;51.076;3.578;2023-08-07T09:26:58;22.20;58.30
59977;DHT22;45837;51.076;3.578;2023-08-07T09:29:24;22.20;57.70
59977;DHT22;45837;51.076;3.578;2023-08-07T09:31:49;22.20;57.90
59977;DHT22;45837;51.076;3.578;2023-08-07T09:34:15;22.20;58.10
59977;DHT22;45837;51.076;3.578;2023-08-07T09:36:44;22.20;57.10
59977;DHT22;45837;51.076;3.578;2023-08-07T09:39:11;22.20;57.10
59977;DHT22;45837;51.076;3.578;2023-08-07T09:41:36;22.20;57.00
59977;DHT22;45837;51.076;3.578;2023-08-07T09:44:06;22.30;57.40
59977;DHT22;45837;51.076;3.578;2023-08-07T09:46:40;22.30;56.80
59977;DHT22;45837;51.076;3.578;2023-08-07T09:49:05;22.30;57.30
59977;DHT22;45837;51.076;3.578;2023-08-07T09:51:49;22.30;57.90
59977;DHT22;45837;51.076;3.578;2023-08-07T09:54:16;22.30;56.90
59977;DHT22;45837;51.076;3.578;2023-08-07T09:56:43;22.30;58.00
59977;DHT22;45837;51.076;3.578;2023-08-07T09:59:09;22.30;57.20
59977;DHT22;45837;51.076;3.578;2023-08-07T10:01:37;22.30;57.90
59977;DHT22;45837;51.076;3.578;2023-08-07T10:04:05;22.30;56.90
59977;DHT22;45837;51.076;3.578;2023-08-07T10:06:30;22.30;57.20
59977;DHT22;45837;51.076;3.578;2023-08-07T10:08:56;22.30;58.10
59977;DHT22;45837;51.076;3.578;2023-08-07T10:11:23;22.30;57.00
59977;DHT22;45837;51.076;3.578;2023-08-07T10:13:49;22.30;57.60
59977;DHT22;45837;51.076;3.578;2023-08-07T10:16:15;22.30;57.20
59977;DHT22;45837;51.076;3.578;2023-08-07T10:18:41;22.30;57.70
59977;DHT22;45837;51.076;3.578;2023-08-07T10:21:06;22.30;58.00
59977;DHT22;45837;51.076;3.578;2023-08-07T10:23:35;22.30;57.40
59977;DHT22;45837;51.076;3.578;2023-08-07T10:26:04;22.30;56.80
59977;DHT22;45837;51.076;3.578;2023-08-07T10:28:31;22.40;57.00
59977;DHT22;45837;51.076;3.578;2023-08-07T10:30:57;22.40;57.00
59977;DHT22;45837;51.076;3.578;2023-08-07T10:33:23;22.30;57.00
59977;DHT22;45837;51.076;3.578;2023-08-07T10:35:51;22.30;57.60
59977;DHT22;45837;51.076;3.578;2023-08-07T10:38:18;22.40;57.20
59977;DHT22;45837;51.076;3.578;2023-08-07T10:40:57;22.30;57.00
59977;DHT22;45837;51.076;3.578;2023-08-07T10:43:24;22.30;56.90
59977;DHT22;45837;51.076;3.578;2023-08-07T10:45:50;22.40;57.20
59977;DHT22;45837;51.076;3.578;2023-08-07T10:48:19;22.40;58.00
59977;DHT22;45837;51.076;3.578;2023-08-07T10:53:20;22.30;56.80
59977;DHT22;45837;51.076;3.578;2023-08-07T10:55:47;22.30;57.10
59977;DHT22;45837;51.076;3.578;2023-08-07T11:03:43;22.30;57.00
59977;DHT22;45837;51.076;3.578;2023-08-07T11:06:10;22.30;58.10
59977;DHT22;45837;51.076;3.578;2023-08-07T11:08:36;22.30;57.30
59977;DHT22;45837;51.076;3.578;2023-08-07T11:11:05;22.40;57.20
59977;DHT22;45837;51.076;3.578;2023-08-07T11:13:32;22.30;57.00
59977;DHT22;45837;51.076;3.578;2023-08-07T11:15:58;22.30;57.20
59977;DHT22;45837;51.076;3.578;2023-08-07T11:18:25;22.30;57.40
59977;DHT22;45837;51.076;3.578;2023-08-07T11:20:51;22.30;57.70
59977;DHT22;45837;51.076;3.578;2023-08-07T11:23:22;22.30;57.20
59977;DHT22;45837;51.076;3.578;2023-08-07T11:25:47;22.30;57.50
59977;DHT22;45837;51.076;3.578;2023-08-07T11:28:13;22.30;58.20
59977;DHT22;45837;51.076;3.578;2023-08-07T11:30:39;22.30;58.00
59977;DHT22;45837;51.076;3.578;2023-08-07T11:33:05;22.30;57.30
59977;DHT22;45837;51.076;3.578;2023-08-07T11:35:31;22.30;58.40
59977;DHT22;45837;51.076;3.578;2023-08-07T11:37:56;22.30;58.00
59977;DHT22;45837;51.076;3.578;2023-08-07T11:40:23;22.30;58.50
59977;DHT22;45837;51.076;3.578;2023-08-07T11:42:48;22.30;57.60
59977;DHT22;45837;51.076;3.578;2023-08-07T11:45:14;22.30;57.90
59977;DHT22;45837;51.076;3.578;2023-08-07T11:47:40;22.40;58.00
59977;DHT22;45837;51.076;3.578;2023-08-07T11:50:06;22.30;58.20
59977;DHT22;45837;51.076;3.578;2023-08-07T11:52:32;22.30;57.70
59977;DHT22;45837;51.076;3.578;2023-08-07T11:54:58;22.30;58.30
59977;DHT22;45837;51.076;3.578;2023-08-07T11:57:26;22.30;57.80
59977;DHT22;45837;51.076;3.578;2023-08-07T11:59:52;22.30;58.50
59977;DHT22;45837;51.076;3.578;2023-08-07T12:02:24;22.30;57.90
59977;DHT22;45837;51.076;3.578;2023-08-07T12:04:50;22.30;57.10
59977;DHT22;45837;51.076;3.578;2023-08-07T12:07:18;22.30;58.30
59977;DHT22;45837;51.076;3.578;2023-08-07T12:09:45;22.30;57.70
59977;DHT22;45837;51.076;3.578;2023-08-07T12:12:13;22.30;57.70
59977;DHT22;45837;51.076;3.578;2023-08-07T12:14:38;22.30;58.60
59977;DHT22;45837;51.076;3.578;2023-08-07T12:17:05;22.30;57.70
59977;DHT22;45837;51.076;3.578;2023-08-07T12:19:37;22.30;58.30
59977;DHT22;45837;51.076;3.578;2023-08-07T12:22:05;22.30;57.50
59977;DHT22;45837;51.076;3.578;2023-08-07T12:24:31;22.30;57.00
59977;DHT22;45837;51.076;3.578;2023-08-07T12:26:57;22.30;57.90
59977;DHT22;45837;51.076;3.578;2023-08-07T12:29:22;22.30;57.70
59977;DHT22;45837;51.076;3.578;2023-08-07T12:31:50;22.30;57.00
59977;DHT22;45837;51.076;3.578;2023-08-07T12:34:15;22.30;57.50
59977;DHT22;45837;51.076;3.578;2023-08-07T12:36:42;22.30;57.60
59977;DHT22;45837;51.076;3.578;2023-08-07T12:39:07;22.30;58.90
59977;DHT22;45837;51.076;3.578;2023-08-07T12:41:33;22.30;58.30
59977;DHT22;45837;51.076;3.578;2023-08-07T12:43:59;22.30;58.40
59977;DHT22;45837;51.076;3.578;2023-08-07T12:46:26;22.20;57.60
59977;DHT22;45837;51.076;3.578;2023-08-07T12:48:52;22.30;58.10
59977;DHT22;45837;51.076;3.578;2023-08-07T12:51:18;22.30;58.00
59977;DHT22;45837;51.076;3.578;2023-08-07T12:53:43;22.40;58.70
59977;DHT22;45837;51.076;3.578;2023-08-07T12:56:10;22.30;57.30
59977;DHT22;45837;51.076;3.578;2023-08-07T12:58:36;22.30;58.70
59977;DHT22;45837;51.076;3.578;2023-08-07T13:01:02;22.30;58.30
59977;DHT22;45837;51.076;3.578;2023-08-07T13:03:27;22.30;57.50
59977;DHT22;45837;51.076;3.578;2023-08-07T13:05:53;22.30;57.90
59977;DHT22;45837;51.076;3.578;2023-08-07T13:08:19;22.30;58.30
59977;DHT22;45837;51.076;3.578;2023-08-07T13:10:44;22.20;57.70
59977;DHT22;45837;51.076;3.578;2023-08-07T13:13:10;22.40;56.60
59977;DHT22;45837;51.076;3.578;2023-08-07T13:15:36;22.50;58.00
59977;DHT22;45837;51.076;3.578;2023-08-07T13:18:01;22.30;58.30
59977;DHT22;45837;51.076;3.578;2023-08-07T13:20:28;22.30;57.20
59977;DHT22;45837;51.076;3.578;2023-08-07T13:22:58;22.40;56.90
59977;DHT22;45837;51.076;3.578;2023-08-07T13:25:24;22.20;57.60
59977;DHT22;45837;51.076;3.578;2023-08-07T13:27:50;22.40;56.90
59977;DHT22;45837;51.076;3.578;2023-08-07T13:30:16;22.20;57.70
59977;DHT22;45837;51.076;3.578;2023-08-07T13:32:41;22.30;58.40
59977;DHT22;45837;51.076;3.578;2023-08-07T13:35:07;22.40;58.50
59977;DHT22;45837;51.076;3.578;2023-08-07T13:37:34;22.30;56.50
59977;DHT22;45837;51.076;3.578;2023-08-07T13:40:04;22.20;57.50
59977;DHT22;45837;51.076;3.578;2023-08-07T13:42:30;22.20;56.40
59977;DHT22;45837;51.076;3.578;2023-08-07T13:44:56;22.20;56.70
59977;DHT22;45837;51.076;3.578;2023-08-07T13:47:22;22.30;57.90
59977;DHT22;45837;51.076;3.578;2023-08-07T13:49:51;22.20;57.00
59977;DHT22;45837;51.076;3.578;2023-08-07T13:52:17;22.20;56.20
59977;DHT22;45837;51.076;3.578;2023-08-07T13:54:42;22.20;58.00
59977;DHT22;45837;51.076;3.578;2023-08-07T13:57:08;22.20;58.60
59977;DHT22;45837;51.076;3.578;2023-08-07T13:59:34;22.20;57.40
59977;DHT22;45837;51.076;3.578;2023-08-07T14:01:59;22.30;57.80
59977;DHT22;45837;51.076;3.578;2023-08-07T14:04:25;22.30;57.40
59977;DHT22;45837;51.076;3.578;2023-08-07T14:06:52;22.20;56.20
59977;DHT22;45837;51.076;3.578;2023-08-07T14:09:17;22.20;57.80
59977;DHT22;45837;51.076;3.578;2023-08-07T14:11:47;22.20;57.10
59977;DHT22;45837;51.076;3.578;2023-08-07T14:14:13;22.40;56.50
59977;DHT22;45837;51.076;3.578;2023-08-07T14:16:38;22.30;57.60
59977;DHT22;45837;51.076;3.578;2023-08-07T14:19:04;22.20;57.70
59977;DHT22;45837;51.076;3.578;2023-08-07T14:21:30;22.20;58.30
59977;DHT22;45837;51.076;3.578;2023-08-07T14:23:55;22.40;57.50
59977;DHT22;45837;51.076;3.578;2023-08-07T14:26:21;21.70;58.10
59977;DHT22;45837;51.076;3.578;2023-08-07T14:28:47;22.30;57.50
59977;DHT22;45837;51.076;3.578;2023-08-07T14:31:12;22.30;57.50
59977;DHT22;45837;51.076;3.578;2023-08-07T14:33:38;22.40;58.10
59977;DHT22;45837;51.076;3.578;2023-08-07T14:36:04;22.20;57.30
59977;DHT22;45837;51.076;3.578;2023-08-07T14:38:30;22.30;57.10
59977;DHT22;45837;51.076;3.578;2023-08-07T14:40:56;22.20;57.10
59977;DHT22;45837;51.076;3.578;2023-08-07T14:43:22;22.20;56.70
59977;DHT22;45837;51.076;3.578;2023-08-07T14:45:48;22.20;57.20
59977;DHT22;45837;51.076;3.578;2023-08-07T14:48:14;22.20;57.50
59977;DHT22;45837;51.076;3.578;2023-08-07T14:50:40;22.20;56.70
59977;DHT22;45837;51.076;3.578;2023-08-07T14:53:06;22.20;57.90
59977;DHT22;45837;51.076;3.578;2023-08-07T14:55:31;22.30;57.90
59977;DHT22;45837;51.076;3.578;2023-08-07T14:57:57;22.40;58.40
59977;DHT22;45837;51.076;3.578;2023-08-07T15:00:23;22.30;58.30
59977;DHT22;45837;51.076;3.578;2023-08-07T15:02:49;22.40;57.50
59977;DHT22;45837;51.076;3.578;2023-08-07T15:05:14;22.20;58.60
59977;DHT22;45837;51.076;3.578;2023-08-07T15:07:40;22.30;58.20
59977;DHT22;45837;51.076;3.578;2023-08-07T15:10:07;22.30;58.80
59977;DHT22;45837;51.076;3.578;2023-08-07T15:12:33;22.30;56.70
59977;DHT22;45837;51.076;3.578;2023-08-07T15:14:59;22.20;57.90
59977;DHT22;45837;51.076;3.578;2023-08-07T15:17:25;22.30;57.70
59977;DHT22;45837;51.076;3.578;2023-08-07T15:19:50;22.20;57.20
59977;DHT22;45837;51.076;3.578;2023-08-07T15:22:16;22.30;58.60
59977;DHT22;45837;51.076;3.578;2023-08-07T15:24:42;22.20;57.60
59977;DHT22;45837;51.076;3.578;2023-08-07T15:27:07;22.30;57.50
59977;DHT22;45837;51.076;3.578;2023-08-07T15:29:33;22.20;58.60
59977;DHT22;45837;51.076;3.578;2023-08-07T15:31:59;22.40;57.50
59977;DHT22;45837;51.076;3.578;2023-08-07T15:34:24;22.30;57.80